createdAt,value
2018-04-09T00:00:53.061Z,0
2018-04-09T00:01:53.785Z,0
2018-04-09T00:02:54.555Z,0
2018-04-09T00:03:55.295Z,0
2018-04-09T00:04:56.046Z,0
2018-04-09T00:05:56.806Z,0
2018-04-09T00:06:57.579Z,0
2018-04-09T00:07:58.338Z,0
2018-04-09T00:08:59.063Z,0
2018-04-09T00:09:59.799Z,0
2018-04-09T00:11:00.537Z,0
2018-04-09T00:12:01.263Z,0
2018-04-09T00:13:02.028Z,0
2018-04-09T00:14:02.800Z,0
2018-04-09T00:15:03.528Z,0
2018-04-09T00:16:04.286Z,0
2018-04-09T00:17:05.010Z,0
2018-04-09T00:18:05.735Z,0
2018-04-09T00:19:06.466Z,0
2018-04-09T00:20:07.193Z,0
2018-04-09T00:21:07.926Z,0
2018-04-09T00:22:08.652Z,0
2018-04-09T00:23:09.400Z,0
2018-04-09T00:24:10.135Z,0
2018-04-09T00:25:10.897Z,0
2018-04-09T00:26:11.645Z,0
2018-04-09T00:27:12.370Z,0
2018-04-09T00:28:13.096Z,0
2018-04-09T00:29:13.845Z,0
2018-04-09T00:30:14.579Z,0
2018-04-09T00:31:15.322Z,0
2018-04-09T00:32:16.080Z,0
2018-04-09T00:33:16.837Z,0
2018-04-09T00:34:17.573Z,0
2018-04-09T00:35:18.299Z,0
2018-04-09T00:36:19.024Z,0
2018-04-09T00:37:19.748Z,0
2018-04-09T00:38:20.498Z,0
2018-04-09T00:39:21.255Z,0
2018-04-09T00:40:21.981Z,0
2018-04-09T00:41:22.716Z,0
2018-04-09T00:42:23.444Z,0
2018-04-09T00:43:24.202Z,0
2018-04-09T00:44:24.983Z,0
2018-04-09T00:45:25.653Z,0
2018-04-09T00:46:26.377Z,0
2018-04-09T00:47:27.100Z,0
2018-04-09T00:48:27.826Z,0
2018-04-09T00:49:28.563Z,0
2018-04-09T00:50:29.297Z,0
2018-04-09T00:51:30.021Z,0
2018-04-09T00:52:30.758Z,0
2018-04-09T00:53:31.482Z,0
2018-04-09T00:54:32.218Z,0
2018-04-09T00:55:32.941Z,0
2018-04-09T00:56:33.665Z,0
2018-04-09T00:57:34.391Z,0
2018-04-09T00:58:35.124Z,0
2018-04-09T00:59:35.842Z,0
2018-04-09T01:00:36.578Z,0
2018-04-09T01:01:37.349Z,0
2018-04-09T01:02:38.091Z,0
2018-04-09T01:03:38.822Z,0
2018-04-09T01:04:39.547Z,0
2018-04-09T01:05:40.271Z,0
2018-04-09T01:06:41.007Z,0
2018-04-09T01:07:41.732Z,0
2018-04-09T01:08:42.481Z,0
2018-04-09T01:09:43.203Z,0
2018-04-09T01:10:43.924Z,0
2018-04-09T01:11:44.652Z,0
2018-04-09T01:12:45.374Z,0
2018-04-09T01:13:46.109Z,0
2018-04-09T01:14:46.834Z,0
2018-04-09T01:15:47.568Z,0
2018-04-09T01:16:48.293Z,0
2018-04-09T01:17:49.024Z,0
2018-04-09T01:18:49.769Z,0
2018-04-09T01:19:50.503Z,0
2018-04-09T01:20:51.230Z,0
2018-04-09T01:21:51.977Z,0
2018-04-09T01:22:52.700Z,0
2018-04-09T01:23:53.424Z,0
2018-04-09T01:24:54.173Z,0
2018-04-09T01:25:54.896Z,0
2018-04-09T01:26:55.620Z,0
2018-04-09T01:27:56.335Z,0
2018-04-09T01:28:57.048Z,0
2018-04-09T01:29:57.761Z,0
2018-04-09T01:30:58.475Z,0
2018-04-09T01:31:59.187Z,0
2018-04-09T01:32:59.900Z,0
2018-04-09T01:34:00.613Z,0
2018-04-09T01:35:01.327Z,0
2018-04-09T01:36:02.039Z,0
2018-04-09T01:37:02.753Z,0
2018-04-09T01:38:03.477Z,0
2018-04-09T01:39:04.207Z,0
2018-04-09T01:40:04.923Z,0
2018-04-09T01:41:05.646Z,0
2018-04-09T01:42:06.358Z,0
2018-04-09T01:43:07.071Z,0
2018-04-09T01:44:07.784Z,0
2018-04-09T01:45:08.496Z,0
2018-04-09T01:46:09.209Z,0
2018-04-09T01:47:09.922Z,0
2018-04-09T01:48:10.633Z,0
2018-04-09T01:49:11.356Z,0
2018-04-09T01:50:12.373Z,0
2018-04-09T01:51:13.085Z,0
2018-04-09T01:52:13.799Z,0
2018-04-09T01:53:14.513Z,0
2018-04-09T01:54:15.226Z,0
2018-04-09T01:55:15.939Z,0
2018-04-09T01:56:16.652Z,0
2018-04-09T01:57:17.369Z,0
2018-04-09T01:58:18.094Z,0
2018-04-09T01:59:18.809Z,0
2018-04-09T02:00:19.523Z,0
2018-04-09T02:01:20.237Z,0
2018-04-09T02:02:20.950Z,0
2018-04-09T02:03:21.684Z,0
2018-04-09T02:04:22.380Z,0
2018-04-09T02:05:23.097Z,0
2018-04-09T02:06:23.821Z,0
2018-04-09T02:07:24.541Z,0
2018-04-09T02:08:25.253Z,0
2018-04-09T02:09:25.966Z,0
2018-04-09T02:10:26.680Z,0
2018-04-09T02:11:27.394Z,0
2018-04-09T02:12:28.122Z,0
2018-04-09T02:13:28.837Z,0
2018-04-09T02:14:29.552Z,0
2018-04-09T02:15:30.265Z,0
2018-04-09T02:16:30.980Z,0
2018-04-09T02:17:31.694Z,0
2018-04-09T02:18:32.409Z,0
2018-04-09T02:19:33.121Z,0
2018-04-09T02:20:33.837Z,0
2018-04-09T02:21:34.549Z,0
2018-04-09T02:22:35.273Z,0
2018-04-09T02:23:35.987Z,0
2018-04-09T02:24:36.709Z,0
2018-04-09T02:25:37.433Z,0
2018-04-09T02:26:38.147Z,0
2018-04-09T02:27:38.875Z,0
2018-04-09T02:28:39.592Z,0
2018-04-09T02:29:40.300Z,0
2018-04-09T02:30:41.020Z,0
2018-04-09T02:31:41.728Z,0
2018-04-09T02:32:42.438Z,0
2018-04-09T02:33:43.152Z,0
2018-04-09T02:34:43.864Z,0
2018-04-09T02:35:44.599Z,0
2018-04-09T02:36:45.319Z,0
2018-04-09T02:37:46.029Z,0
2018-04-09T02:38:46.742Z,0
2018-04-09T02:39:47.469Z,0
2018-04-09T02:40:48.183Z,0
2018-04-09T02:41:48.900Z,0
2018-04-09T02:42:49.608Z,0
2018-04-09T02:43:50.323Z,0
2018-04-09T02:44:51.036Z,0
2018-04-09T02:45:51.750Z,0
2018-04-09T02:46:52.463Z,0
2018-04-09T02:47:53.176Z,0
2018-04-09T02:48:53.889Z,0
2018-04-09T02:49:54.616Z,0
2018-04-09T02:50:55.340Z,0
2018-04-09T02:51:56.051Z,0
2018-04-09T02:52:56.763Z,0
2018-04-09T02:53:57.488Z,0
2018-04-09T02:54:58.208Z,0
2018-04-09T02:55:58.923Z,0
2018-04-09T02:56:59.642Z,0
2018-04-09T02:58:00.355Z,0
2018-04-09T02:59:01.068Z,0
2018-04-09T03:00:01.778Z,0
2018-04-09T03:01:02.491Z,0
2018-04-09T03:02:03.214Z,0
2018-04-09T03:03:03.927Z,0
2018-04-09T03:04:04.640Z,0
2018-04-09T03:05:05.353Z,0
2018-04-09T03:06:06.067Z,0
2018-04-09T03:07:06.781Z,0
2018-04-09T03:08:07.493Z,0
2018-04-09T03:09:08.213Z,0
2018-04-09T03:10:08.920Z,0
2018-04-09T03:11:09.631Z,0
2018-04-09T03:12:10.344Z,0
2018-04-09T03:13:11.056Z,0
2018-04-09T03:14:11.770Z,0
2018-04-09T03:15:12.482Z,0
2018-04-09T03:16:13.194Z,0
2018-04-09T03:17:13.906Z,0
2018-04-09T03:18:14.620Z,0
2018-04-09T03:19:15.333Z,0
2018-04-09T03:20:16.058Z,0
2018-04-09T03:21:16.810Z,0
2018-04-09T03:22:17.483Z,0
2018-04-09T03:23:18.193Z,0
2018-04-09T03:24:18.908Z,0
2018-04-09T03:25:19.621Z,0
2018-04-09T03:26:20.333Z,0
2018-04-09T03:27:21.048Z,0
2018-04-09T03:28:21.758Z,0
2018-04-09T03:29:22.472Z,0
2018-04-09T03:30:23.199Z,0
2018-04-09T03:31:23.912Z,0
2018-04-09T03:32:24.624Z,0
2018-04-09T03:33:25.337Z,0
2018-04-09T03:34:26.062Z,0
2018-04-09T03:35:26.775Z,0
2018-04-09T03:36:27.486Z,0
2018-04-09T03:37:28.200Z,0
2018-04-09T03:38:28.923Z,0
2018-04-09T03:39:29.623Z,0
2018-04-09T03:40:30.335Z,0
2018-04-09T03:41:31.047Z,0
2018-04-09T03:42:31.759Z,0
2018-04-09T03:43:32.475Z,0
2018-04-09T03:44:33.195Z,0
2018-04-09T03:45:33.907Z,0
2018-04-09T03:46:34.619Z,0
2018-04-09T03:47:35.331Z,0
2018-04-09T03:48:36.047Z,0
2018-04-09T03:49:36.755Z,0
2018-04-09T03:50:37.468Z,0
2018-04-09T03:51:38.225Z,0
2018-04-09T03:52:38.908Z,0
2018-04-09T03:53:39.620Z,0
2018-04-09T03:54:40.330Z,0
2018-04-09T03:55:41.043Z,0
2018-04-09T03:56:41.754Z,0
2018-04-09T03:57:42.467Z,0
2018-04-09T03:58:43.197Z,0
2018-04-09T03:59:43.911Z,0
2018-04-09T04:00:44.623Z,0
2018-04-09T04:01:45.336Z,0
2018-04-09T04:02:46.049Z,0
2018-04-09T04:03:46.761Z,0
2018-04-09T04:04:47.474Z,0
2018-04-09T04:05:48.185Z,0
2018-04-09T04:06:48.898Z,0
2018-04-09T04:07:49.612Z,0
2018-04-09T04:08:50.323Z,0
2018-04-09T04:09:51.035Z,0
2018-04-09T04:10:51.749Z,0
2018-04-09T04:11:52.464Z,0
2018-04-09T04:12:53.176Z,0
2018-04-09T04:13:53.887Z,0
2018-04-09T04:14:54.599Z,0
2018-04-09T04:15:55.313Z,0
2018-04-09T04:16:56.025Z,4
2018-04-09T04:17:56.741Z,4
2018-04-09T04:18:57.451Z,0
2018-04-09T04:19:58.164Z,4
2018-04-09T04:20:58.875Z,0
2018-04-09T04:21:59.590Z,4
2018-04-09T04:23:00.302Z,4
2018-04-09T04:24:01.014Z,8
2018-04-09T04:25:01.726Z,8
2018-04-09T04:26:02.440Z,8
2018-04-09T04:27:03.157Z,12
2018-04-09T04:28:03.865Z,16
2018-04-09T04:29:04.578Z,16
2018-04-09T04:30:05.290Z,20
2018-04-09T04:31:06.021Z,20
2018-04-09T04:32:06.736Z,28
2018-04-09T04:33:07.459Z,32
2018-04-09T04:34:08.174Z,32
2018-04-09T04:35:08.891Z,40
2018-04-09T04:36:09.607Z,44
2018-04-09T04:37:10.333Z,48
2018-04-09T04:38:11.043Z,56
2018-04-09T04:39:11.757Z,64
2018-04-09T04:40:12.472Z,72
2018-04-09T04:41:13.184Z,80
2018-04-09T04:42:13.897Z,88
2018-04-09T04:43:14.613Z,100
2018-04-09T04:44:15.327Z,116
2018-04-09T04:45:16.041Z,124
2018-04-09T04:46:16.755Z,136
2018-04-09T04:47:17.482Z,156
2018-04-09T04:48:18.202Z,168
2018-04-09T04:49:18.911Z,188
2018-04-09T04:50:19.625Z,204
2018-04-09T04:51:20.339Z,224
2018-04-09T04:52:21.055Z,240
2018-04-09T04:53:21.782Z,264
2018-04-09T04:54:22.511Z,284
2018-04-09T04:55:23.239Z,308
2018-04-09T04:56:23.966Z,332
2018-04-09T04:57:24.682Z,356
2018-04-09T04:58:25.399Z,384
2018-04-09T04:59:26.127Z,408
2018-04-09T05:00:26.844Z,436
2018-04-09T05:01:27.559Z,468
2018-04-09T05:02:28.275Z,496
2018-04-09T05:03:29.005Z,528
2018-04-09T05:04:29.738Z,560
2018-04-09T05:05:30.449Z,596
2018-04-09T05:06:31.177Z,628
2018-04-09T05:07:31.904Z,672
2018-04-09T05:08:32.618Z,704
2018-04-09T05:09:33.332Z,744
2018-04-09T05:10:34.058Z,784
2018-04-09T05:11:34.773Z,824
2018-04-09T05:12:35.488Z,864
2018-04-09T05:13:36.218Z,908
2018-04-09T05:14:36.934Z,956
2018-04-09T05:15:37.649Z,1004
2018-04-09T05:16:38.379Z,1056
2018-04-09T05:17:39.094Z,1112
2018-04-09T05:18:39.812Z,1172
2018-04-09T05:19:40.541Z,1240
2018-04-09T05:20:41.266Z,1308
2018-04-09T05:21:41.971Z,1380
2018-04-09T05:22:42.701Z,1456
2018-04-09T05:23:43.432Z,1528
2018-04-09T05:24:44.147Z,1608
2018-04-09T05:25:44.864Z,1684
2018-04-09T05:26:45.580Z,1764
2018-04-09T05:27:46.298Z,1840
2018-04-09T05:28:47.029Z,1916
2018-04-09T05:29:47.746Z,1988
2018-04-09T05:30:48.463Z,2056
2018-04-09T05:31:49.179Z,2120
2018-04-09T05:32:49.895Z,2168
2018-04-09T05:33:50.611Z,2228
2018-04-09T05:34:51.329Z,2288
2018-04-09T05:35:52.060Z,2348
2018-04-09T05:36:52.779Z,2404
2018-04-09T05:37:53.497Z,2444
2018-04-09T05:38:54.232Z,2468
2018-04-09T05:39:54.943Z,2492
2018-04-09T05:40:55.660Z,2504
2018-04-09T05:41:56.378Z,2520
2018-04-09T05:42:57.095Z,2540
2018-04-09T05:43:57.813Z,2552
2018-04-09T05:44:58.528Z,2564
2018-04-09T05:45:59.244Z,2572
2018-04-09T05:46:59.974Z,2580
2018-04-09T05:48:00.683Z,2596
2018-04-09T05:49:01.400Z,2616
2018-04-09T05:50:02.118Z,2636
2018-04-09T05:51:02.848Z,2672
2018-04-09T05:52:03.567Z,2724
2018-04-09T05:53:04.282Z,2784
2018-04-09T05:54:05.013Z,2836
2018-04-09T05:55:05.733Z,2892
2018-04-09T05:56:06.462Z,2948
2018-04-09T05:57:07.178Z,3008
2018-04-09T05:58:07.897Z,3076
2018-04-09T05:59:08.632Z,3148
2018-04-09T06:00:09.350Z,3216
2018-04-09T06:01:10.068Z,3296
2018-04-09T06:02:10.785Z,3388
2018-04-09T06:03:11.503Z,3488
2018-04-09T06:04:12.222Z,3608
2018-04-09T06:05:12.940Z,3752
2018-04-09T06:06:13.659Z,3872
2018-04-09T06:07:14.377Z,4000
2018-04-09T06:08:15.109Z,4124
2018-04-09T06:09:15.840Z,4232
2018-04-09T06:10:16.596Z,4352
2018-04-09T06:11:17.280Z,4472
2018-04-09T06:12:17.998Z,4636
2018-04-09T06:13:18.718Z,4816
2018-04-09T06:14:19.438Z,5048
2018-04-09T06:15:20.172Z,5332
2018-04-09T06:16:20.891Z,5672
2018-04-09T06:17:21.610Z,6028
2018-04-09T06:18:22.329Z,6352
2018-04-09T06:19:23.049Z,6592
2018-04-09T06:20:23.768Z,6896
2018-04-09T06:21:24.490Z,7140
2018-04-09T06:22:25.207Z,7320
2018-04-09T06:23:25.929Z,7464
2018-04-09T06:24:26.649Z,7532
2018-04-09T06:25:27.380Z,7564
2018-04-09T06:26:28.100Z,7588
2018-04-09T06:27:28.830Z,7624
2018-04-09T06:28:29.551Z,7680
2018-04-09T06:29:30.273Z,7756
2018-04-09T06:30:30.993Z,7880
2018-04-09T06:31:31.713Z,8212
2018-04-09T06:32:32.447Z,9540
2018-04-09T06:33:33.168Z,11196
2018-04-09T06:34:33.889Z,11188
2018-04-09T06:35:34.612Z,11924
2018-04-09T06:36:35.335Z,11272
2018-04-09T06:37:36.058Z,9956
2018-04-09T06:38:36.782Z,8288
2018-04-09T06:39:37.502Z,7712
2018-04-09T06:40:38.221Z,6856
2018-04-09T06:41:38.944Z,6600
2018-04-09T06:42:39.663Z,6984
2018-04-09T06:43:40.385Z,7052
2018-04-09T06:44:41.108Z,7036
2018-04-09T06:45:41.830Z,7208
2018-04-09T06:46:42.563Z,7348
2018-04-09T06:47:43.297Z,7280
2018-04-09T06:48:44.017Z,7528
2018-04-09T06:49:44.740Z,7368
2018-04-09T06:50:45.479Z,7524
2018-04-09T06:51:46.180Z,7536
2018-04-09T06:52:46.902Z,7440
2018-04-09T06:53:47.623Z,7244
2018-04-09T06:54:48.344Z,7364
2018-04-09T06:55:49.063Z,7324
2018-04-09T06:56:49.786Z,7476
2018-04-09T06:57:50.525Z,7204
2018-04-09T06:58:51.228Z,7100
2018-04-09T06:59:51.949Z,7064
2018-04-09T07:00:52.669Z,6896
2018-04-09T07:01:53.401Z,7032
2018-04-09T07:02:54.126Z,7284
2018-04-09T07:03:54.844Z,7652
2018-04-09T07:04:55.564Z,8016
2018-04-09T07:05:56.289Z,8276
2018-04-09T07:06:57.014Z,8532
2018-04-09T07:07:57.736Z,8616
2018-04-09T07:08:58.494Z,8940
2018-04-09T07:09:59.180Z,9376
2018-04-09T07:10:59.901Z,9756
2018-04-09T07:12:00.623Z,11064
2018-04-09T07:13:01.346Z,10192
2018-04-09T07:14:02.070Z,10180
2018-04-09T07:15:02.793Z,10128
2018-04-09T07:16:03.519Z,10164
2018-04-09T07:17:04.248Z,10192
2018-04-09T07:18:04.985Z,10572
2018-04-09T07:19:05.709Z,10332
2018-04-09T07:20:06.431Z,10684
2018-04-09T07:21:07.152Z,10884
2018-04-09T07:22:07.879Z,11268
2018-04-09T07:23:08.598Z,11620
2018-04-09T07:24:09.322Z,14728
2018-04-09T07:25:10.053Z,13092
2018-04-09T07:26:10.771Z,16160
2018-04-09T07:27:11.495Z,20192
2018-04-09T07:28:12.220Z,17024
2018-04-09T07:29:12.952Z,16064
2018-04-09T07:30:13.675Z,13184
2018-04-09T07:31:14.401Z,10788
2018-04-09T07:32:15.126Z,10716
2018-04-09T07:33:15.853Z,12068
2018-04-09T07:34:16.581Z,13044
2018-04-09T07:35:17.306Z,16256
2018-04-09T07:36:18.036Z,16320
2018-04-09T07:37:18.761Z,13400
2018-04-09T07:38:19.495Z,14572
2018-04-09T07:39:20.216Z,11996
2018-04-09T07:40:20.940Z,11432
2018-04-09T07:41:21.679Z,12644
2018-04-09T07:42:22.406Z,17920
2018-04-09T07:43:23.147Z,19584
2018-04-09T07:44:23.915Z,13452
2018-04-09T07:45:24.615Z,18624
2018-04-09T07:46:25.359Z,21152
2018-04-09T07:47:26.087Z,20736
2018-04-09T07:48:26.817Z,23424
2018-04-09T07:49:27.543Z,17504
2018-04-09T07:50:28.269Z,21248
2018-04-09T07:51:28.998Z,19328
2018-04-09T07:52:29.725Z,16768
2018-04-09T07:53:30.464Z,17536
2018-04-09T07:54:31.193Z,15172
2018-04-09T07:55:31.921Z,14800
2018-04-09T07:56:32.650Z,19136
2018-04-09T07:57:33.375Z,19840
2018-04-09T07:58:34.105Z,23968
2018-04-09T07:59:34.850Z,25120
2018-04-09T08:00:35.580Z,29600
2018-04-09T08:01:36.310Z,31776
2018-04-09T08:02:37.041Z,18976
2018-04-09T08:03:37.772Z,14716
2018-04-09T08:04:38.503Z,19520
2018-04-09T08:05:39.241Z,19296
2018-04-09T08:06:39.965Z,14696
2018-04-09T08:07:40.708Z,12912
2018-04-09T08:08:41.443Z,13104
2018-04-09T08:09:42.186Z,13860
2018-04-09T08:10:42.925Z,14428
2018-04-09T08:11:43.656Z,18080
2018-04-09T08:12:44.511Z,23616
2018-04-09T08:13:45.242Z,19712
2018-04-09T08:14:45.972Z,28672
2018-04-09T08:15:46.702Z,23648
2018-04-09T08:16:47.430Z,22432
2018-04-09T08:17:48.172Z,18400
2018-04-09T08:18:48.898Z,16448
2018-04-09T08:19:49.629Z,18688
2018-04-09T08:20:50.358Z,16800
2018-04-09T08:21:51.090Z,17120
2018-04-09T08:22:51.828Z,19072
2018-04-09T08:23:52.555Z,21216
2018-04-09T08:24:53.288Z,35296
2018-04-09T08:25:54.030Z,40800
2018-04-09T08:26:54.759Z,38592
2018-04-09T08:27:55.492Z,35168
2018-04-09T08:28:56.223Z,31616
2018-04-09T08:29:56.951Z,26720
2018-04-09T08:30:57.699Z,20064
2018-04-09T08:31:58.432Z,17728
2018-04-09T08:32:59.163Z,18592
2018-04-09T08:33:59.916Z,18560
2018-04-09T08:35:00.634Z,16128
2018-04-09T08:36:01.372Z,14996
2018-04-09T08:37:02.112Z,14608
2018-04-09T08:38:02.840Z,20800
2018-04-09T08:39:03.568Z,23328
2018-04-09T08:40:04.295Z,26016
2018-04-09T08:41:05.036Z,25408
2018-04-09T08:42:05.766Z,22528
2018-04-09T08:43:06.494Z,22880
2018-04-09T08:44:07.222Z,18176
2018-04-09T08:45:07.952Z,17696
2018-04-09T08:46:08.681Z,15116
2018-04-09T08:47:09.412Z,15808
2018-04-09T08:48:10.136Z,22048
2018-04-09T08:49:10.865Z,20832
2018-04-09T08:50:11.605Z,17152
2018-04-09T08:51:12.332Z,16832
2018-04-09T08:52:13.058Z,15968
2018-04-09T08:53:13.798Z,16896
2018-04-09T08:54:14.532Z,28384
2018-04-09T08:55:15.260Z,30784
2018-04-09T08:56:15.988Z,25376
2018-04-09T08:57:16.717Z,22368
2018-04-09T08:58:17.457Z,18976
2018-04-09T08:59:18.186Z,18400
2018-04-09T09:00:18.911Z,17024
2018-04-09T09:01:19.657Z,19296
2018-04-09T09:02:20.387Z,21856
2018-04-09T09:03:21.127Z,22208
2018-04-09T09:04:21.854Z,23232
2018-04-09T09:05:22.587Z,22592
2018-04-09T09:06:23.314Z,24608
2018-04-09T09:07:24.044Z,20416
2018-04-09T09:08:24.771Z,21504
2018-04-09T09:09:25.503Z,19104
2018-04-09T09:10:26.233Z,17920
2018-04-09T09:11:26.976Z,17248
2018-04-09T09:12:27.705Z,16480
2018-04-09T09:13:28.439Z,16576
2018-04-09T09:14:29.168Z,16960
2018-04-09T09:15:29.911Z,17728
2018-04-09T09:16:30.762Z,18240
2018-04-09T09:17:31.386Z,17024
2018-04-09T09:18:32.120Z,16768
2018-04-09T09:19:32.872Z,16416
2018-04-09T09:20:33.600Z,15476
2018-04-09T09:21:34.342Z,16704
2018-04-09T09:22:35.088Z,15320
2018-04-09T09:23:35.812Z,15496
2018-04-09T09:24:36.538Z,16416
2018-04-09T09:25:37.267Z,18208
2018-04-09T09:26:38.013Z,18272
2018-04-09T09:27:38.741Z,18272
2018-04-09T09:28:39.473Z,17600
2018-04-09T09:29:40.208Z,17056
2018-04-09T09:30:40.947Z,17184
2018-04-09T09:31:41.686Z,16864
2018-04-09T09:32:42.419Z,16352
2018-04-09T09:33:43.149Z,16352
2018-04-09T09:34:43.882Z,16800
2018-04-09T09:35:44.616Z,17952
2018-04-09T09:36:45.358Z,19744
2018-04-09T09:37:46.103Z,21344
2018-04-09T09:38:46.830Z,24736
2018-04-09T09:39:47.569Z,26368
2018-04-09T09:40:48.298Z,36288
2018-04-09T09:41:49.031Z,28928
2018-04-09T09:42:49.761Z,27200
2018-04-09T09:43:50.490Z,28768
2018-04-09T09:44:51.219Z,36992
2018-04-09T09:45:51.950Z,48192
2018-04-09T09:46:52.682Z,41376
2018-04-09T09:47:53.421Z,34912
2018-04-09T09:48:54.159Z,41792
2018-04-09T09:49:54.901Z,50144
2018-04-09T09:50:55.633Z,38944
2018-04-09T09:51:56.363Z,36256
2018-04-09T09:52:57.107Z,42656
2018-04-09T09:53:57.843Z,39488
2018-04-09T09:54:58.591Z,48352
2018-04-09T09:55:59.324Z,41888
2018-04-09T09:57:00.054Z,37056
2018-04-09T09:58:00.799Z,31808
2018-04-09T09:59:01.531Z,26976
2018-04-09T10:00:02.264Z,26272
2018-04-09T10:01:02.991Z,28160
2018-04-09T10:02:03.734Z,24512
2018-04-09T10:03:04.465Z,28832
2018-04-09T10:04:05.207Z,50528
2018-04-09T10:05:05.938Z,48000
2018-04-09T10:06:06.667Z,40352
2018-04-09T10:07:07.403Z,28384
2018-04-09T10:08:08.146Z,24768
2018-04-09T10:09:08.884Z,30272
2018-04-09T10:10:09.629Z,41248
2018-04-09T10:11:10.382Z,46016
2018-04-09T10:12:11.112Z,36384
2018-04-09T10:13:11.840Z,29792
2018-04-09T10:14:12.569Z,31904
2018-04-09T10:15:13.302Z,44320
2018-04-09T10:16:14.035Z,65440
2018-04-09T10:17:14.780Z,64544
2018-04-09T10:18:15.524Z,54048
2018-04-09T10:19:16.258Z,42560
2018-04-09T10:20:16.999Z,47168
2018-04-09T10:21:17.725Z,44416
2018-04-09T10:22:18.459Z,45696
2018-04-09T10:23:19.191Z,37216
2018-04-09T10:24:19.929Z,37248
2018-04-09T10:25:20.671Z,40608
2018-04-09T10:26:21.402Z,49792
2018-04-09T10:27:22.136Z,44064
2018-04-09T10:28:22.868Z,29984
2018-04-09T10:29:23.599Z,34336
2018-04-09T10:30:24.332Z,29760
2018-04-09T10:31:25.066Z,34656
2018-04-09T10:32:25.808Z,33824
2018-04-09T10:33:26.540Z,30816
2018-04-09T10:34:27.319Z,25792
2018-04-09T10:35:28.006Z,25504
2018-04-09T10:36:28.737Z,25664
2018-04-09T10:37:29.465Z,29120
2018-04-09T10:38:30.208Z,32800
2018-04-09T10:39:30.952Z,31200
2018-04-09T10:40:31.683Z,33760
2018-04-09T10:41:32.414Z,34304
2018-04-09T10:42:33.146Z,44672
2018-04-09T10:43:33.875Z,37696
2018-04-09T10:44:34.621Z,39840
2018-04-09T10:45:35.370Z,41536
2018-04-09T10:46:36.115Z,41568
2018-04-09T10:47:36.846Z,34112
2018-04-09T10:48:37.580Z,42080
2018-04-09T10:49:38.320Z,33600
2018-04-09T10:50:39.043Z,25184
2018-04-09T10:51:39.787Z,28992
2018-04-09T10:52:40.517Z,34240
2018-04-09T10:53:41.261Z,35840
2018-04-09T10:54:41.994Z,39680
2018-04-09T10:55:42.740Z,50880
2018-04-09T10:56:43.472Z,46304
2018-04-09T10:57:44.207Z,57536
2018-04-09T10:58:44.940Z,39072
2018-04-09T10:59:45.672Z,34752
2018-04-09T11:00:46.410Z,28096
2018-04-09T11:01:47.138Z,26784
2018-04-09T11:02:47.868Z,25344
2018-04-09T11:03:48.614Z,23808
2018-04-09T11:04:49.345Z,27296
2018-04-09T11:05:50.078Z,32064
2018-04-09T11:06:50.809Z,23232
2018-04-09T11:07:51.545Z,22336
2018-04-09T11:08:52.272Z,20672
2018-04-09T11:09:53.004Z,20256
2018-04-09T11:10:53.736Z,26112
2018-04-09T11:11:54.466Z,24032
2018-04-09T11:12:55.197Z,21728
2018-04-09T11:13:55.930Z,22112
2018-04-09T11:14:56.671Z,21408
2018-04-09T11:15:57.401Z,19264
2018-04-09T11:16:58.132Z,19968
2018-04-09T11:17:58.862Z,20128
2018-04-09T11:18:59.592Z,18464
2018-04-09T11:20:00.323Z,19744
2018-04-09T11:21:01.065Z,19008
2018-04-09T11:22:01.796Z,18880
2018-04-09T11:23:02.538Z,17984
2018-04-09T11:24:03.266Z,26080
2018-04-09T11:25:03.997Z,25792
2018-04-09T11:26:04.740Z,25376
2018-04-09T11:27:05.478Z,21248
2018-04-09T11:28:06.199Z,20032
2018-04-09T11:29:06.927Z,19968
2018-04-09T11:30:07.668Z,19584
2018-04-09T11:31:08.399Z,18272
2018-04-09T11:32:09.129Z,16896
2018-04-09T11:33:09.869Z,15288
2018-04-09T11:34:10.600Z,15048
2018-04-09T11:35:11.329Z,15128
2018-04-09T11:36:12.059Z,15008
2018-04-09T11:37:12.793Z,15064
2018-04-09T11:38:13.533Z,15104
2018-04-09T11:39:14.261Z,15236
2018-04-09T11:40:14.990Z,15280
2018-04-09T11:41:15.721Z,14768
2018-04-09T11:42:16.448Z,15644
2018-04-09T11:43:17.176Z,17120
2018-04-09T11:44:17.906Z,20864
2018-04-09T11:45:18.635Z,20288
2018-04-09T11:46:19.375Z,24512
2018-04-09T11:47:20.105Z,23168
2018-04-09T11:48:20.834Z,22368
2018-04-09T11:49:21.564Z,22816
2018-04-09T11:50:22.294Z,27840
2018-04-09T11:51:23.023Z,32128
2018-04-09T11:52:23.750Z,26432
2018-04-09T11:53:24.480Z,27808
2018-04-09T11:54:25.213Z,29952
2018-04-09T11:55:25.940Z,30944
2018-04-09T11:56:26.671Z,28384
2018-04-09T11:57:27.399Z,29888
2018-04-09T11:58:28.141Z,21184
2018-04-09T11:59:28.878Z,20960
2018-04-09T12:00:29.614Z,19040
2018-04-09T12:01:30.341Z,18464
2018-04-09T12:02:31.070Z,18656
2018-04-09T12:03:31.799Z,23776
2018-04-09T12:04:32.528Z,20192
2018-04-09T12:05:33.258Z,26304
2018-04-09T12:06:34.002Z,56480
2018-04-09T12:07:34.733Z,51744
2018-04-09T12:08:35.476Z,52160
2018-04-09T12:09:36.206Z,55488
2018-04-09T12:10:36.939Z,43936
2018-04-09T12:11:37.674Z,42080
2018-04-09T12:12:38.404Z,38176
2018-04-09T12:13:39.136Z,36096
2018-04-09T12:14:39.869Z,35232
2018-04-09T12:15:40.644Z,25568
2018-04-09T12:16:41.345Z,22240
2018-04-09T12:17:42.076Z,24704
2018-04-09T12:18:42.808Z,27072
2018-04-09T12:19:43.550Z,29376
2018-04-09T12:20:44.282Z,39008
2018-04-09T12:21:45.014Z,37088
2018-04-09T12:22:45.746Z,23296
2018-04-09T12:23:46.477Z,25312
2018-04-09T12:24:47.208Z,21056
2018-04-09T12:25:47.940Z,24128
2018-04-09T12:26:48.671Z,23904
2018-04-09T12:27:49.401Z,23104
2018-04-09T12:28:50.138Z,20832
2018-04-09T12:29:50.865Z,19712
2018-04-09T12:30:51.594Z,20384
2018-04-09T12:31:52.325Z,22464
2018-04-09T12:32:53.068Z,19616
2018-04-09T12:33:53.800Z,17632
2018-04-09T12:34:54.529Z,17344
2018-04-09T12:35:55.257Z,17920
2018-04-09T12:36:55.987Z,19072
2018-04-09T12:37:56.717Z,23776
2018-04-09T12:38:57.444Z,32640
2018-04-09T12:39:58.178Z,40448
2018-04-09T12:40:58.907Z,34368
2018-04-09T12:41:59.640Z,30752
2018-04-09T12:43:00.383Z,28000
2018-04-09T12:44:01.125Z,30592
2018-04-09T12:45:01.854Z,32384
2018-04-09T12:46:02.586Z,37792
2018-04-09T12:47:03.316Z,30560
2018-04-09T12:48:04.048Z,36992
2018-04-09T12:49:04.780Z,42880
2018-04-09T12:50:05.512Z,44544
2018-04-09T12:51:06.257Z,48032
2018-04-09T12:52:06.992Z,40480
2018-04-09T12:53:07.721Z,30848
2018-04-09T12:54:08.453Z,22944
2018-04-09T12:55:09.182Z,19520
2018-04-09T12:56:09.913Z,17024
2018-04-09T12:57:10.645Z,16160
2018-04-09T12:58:11.384Z,14012
2018-04-09T12:59:12.128Z,13120
2018-04-09T13:00:12.858Z,12984
2018-04-09T13:01:13.607Z,14364
2018-04-09T13:02:14.337Z,14828
2018-04-09T13:03:15.068Z,14264
2018-04-09T13:04:15.810Z,13000
2018-04-09T13:05:16.551Z,13344
2018-04-09T13:06:17.280Z,13952
2018-04-09T13:07:18.023Z,13596
2018-04-09T13:08:18.752Z,13836
2018-04-09T13:09:19.481Z,14240
2018-04-09T13:10:20.210Z,14016
2018-04-09T13:11:20.952Z,13772
2018-04-09T13:12:21.682Z,13464
2018-04-09T13:13:22.411Z,13188
2018-04-09T13:14:23.140Z,13496
2018-04-09T13:15:23.870Z,12848
2018-04-09T13:16:24.598Z,12384
2018-04-09T13:17:25.371Z,11896
2018-04-09T13:18:26.066Z,11552
2018-04-09T13:19:26.795Z,11340
2018-04-09T13:20:27.537Z,11224
2018-04-09T13:21:28.266Z,11248
2018-04-09T13:22:28.994Z,11372
2018-04-09T13:23:29.721Z,11592
2018-04-09T13:24:30.447Z,11732
2018-04-09T13:25:31.188Z,11888
2018-04-09T13:26:31.914Z,12104
2018-04-09T13:27:32.642Z,12220
2018-04-09T13:28:33.383Z,12828
2018-04-09T13:29:34.116Z,13716
2018-04-09T13:30:34.852Z,13252
2018-04-09T13:31:35.579Z,15840
2018-04-09T13:32:36.322Z,13588
2018-04-09T13:33:37.049Z,14152
2018-04-09T13:34:37.787Z,14560
2018-04-09T13:35:38.574Z,14748
2018-04-09T13:36:39.270Z,14324
2018-04-09T13:37:39.995Z,14896
2018-04-09T13:38:40.725Z,15112
2018-04-09T13:39:41.465Z,15904
2018-04-09T13:40:42.193Z,15644
2018-04-09T13:41:42.935Z,15936
2018-04-09T13:42:43.674Z,16128
2018-04-09T13:43:44.400Z,16800